sensor_id;sensor_type;location;lat;lon;timestamp;pressure;altitude;pressure_sealevel;temperature;humidity
62800;BME280;48842;51.046;13.796;2023-11-19T00:01:22;100453.44;;;8.86;nan
62800;BME280;48842;51.046;13.796;2023-11-19T00:03:47;100449.94;;;8.86;nan
62800;BME280;48842;51.046;13.796;2023-11-19T00:06:13;100432.47;;;8.83;nan
62800;BME280;48842;51.046;13.796;2023-11-19T00:08:38;100425.53;;;8.82;nan
62800;BME280;48842;51.046;13.796;2023-11-19T00:11:04;100418.53;;;8.81;nan
62800;BME280;48842;51.046;13.796;2023-11-19T00:13:29;100384.56;;;8.78;nan
62800;BME280;48842;51.046;13.796;2023-11-19T00:15:55;100381.91;;;8.75;nan
62800;BME280;48842;51.046;13.796;2023-11-19T00:18:21;100381.84;;;8.69;nan
62800;BME280;48842;51.046;13.796;2023-11-19T00:20:47;100367.00;;;8.66;nan
62800;BME280;48842;51.046;13.796;2023-11-19T00:23:12;100373.06;;;8.64;nan
62800;BME280;48842;51.046;13.796;2023-11-19T00:25:37;100380.03;;;8.63;nan
62800;BME280;48842;51.046;13.796;2023-11-19T00:28:03;100377.41;;;8.62;nan
62800;BME280;48842;51.046;13.796;2023-11-19T00:30:29;100356.47;;;8.59;nan
62800;BME280;48842;51.046;13.796;2023-11-19T00:32:56;100344.22;;;8.54;nan
62800;BME280;48842;51.046;13.796;2023-11-19T00:35:21;100353.75;;;8.51;nan
62800;BME280;48842;51.046;13.796;2023-11-19T00:37:46;100351.97;;;8.48;nan
62800;BME280;48842;51.046;13.796;2023-11-19T00:40:12;100345.84;;;8.46;nan
62800;BME280;48842;51.046;13.796;2023-11-19T00:42:38;100336.28;;;8.45;nan
62800;BME280;48842;51.046;13.796;2023-11-19T00:45:04;100344.97;;;8.44;nan
62800;BME280;48842;51.046;13.796;2023-11-19T00:47:33;100331.00;;;8.44;nan
62800;BME280;48842;51.046;13.796;2023-11-19T00:49:58;100342.38;;;8.44;nan
62800;BME280;48842;51.046;13.796;2023-11-19T00:52:24;100339.75;;;8.44;nan
62800;BME280;48842;51.046;13.796;2023-11-19T00:54:49;100323.22;;;8.45;nan
62800;BME280;48842;51.046;13.796;2023-11-19T00:57:14;100320.63;;;8.47;nan
62800;BME280;48842;51.046;13.796;2023-11-19T00:59:43;100326.75;;;8.47;nan
62800;BME280;48842;51.046;13.796;2023-11-19T01:02:08;100315.41;;;8.47;nan
62800;BME280;48842;51.046;13.796;2023-11-19T01:04:34;100294.53;;;8.47;nan
62800;BME280;48842;51.046;13.796;2023-11-19T01:07:03;100291.91;;;8.45;nan
62800;BME280;48842;51.046;13.796;2023-11-19T01:09:29;100289.22;;;8.44;nan
62800;BME280;48842;51.046;13.796;2023-11-19T01:11:57;100273.56;;;8.42;nan
62800;BME280;48842;51.046;13.796;2023-11-19T01:14:22;100264.88;;;8.42;nan
62800;BME280;48842;51.046;13.796;2023-11-19T01:16:47;100250.06;;;8.42;nan
62800;BME280;48842;51.046;13.796;2023-11-19T01:19:13;100230.94;;;8.43;nan
62800;BME280;48842;51.046;13.796;2023-11-19T01:21:38;100237.97;;;8.44;nan
62800;BME280;48842;51.046;13.796;2023-11-19T01:24:04;100237.97;;;8.44;nan
62800;BME280;48842;51.046;13.796;2023-11-19T01:26:31;100231.88;;;8.45;nan
62800;BME280;48842;51.046;13.796;2023-11-19T01:28:56;100237.09;;;8.47;nan
62800;BME280;48842;51.046;13.796;2023-11-19T01:31:21;100238.88;;;8.49;nan
62800;BME280;48842;51.046;13.796;2023-11-19T01:33:47;100225.81;;;8.49;nan
62800;BME280;48842;51.046;13.796;2023-11-19T01:36:15;100218.88;;;8.50;nan
62800;BME280;48842;51.046;13.796;2023-11-19T01:38:40;100217.13;;;8.50;nan
62800;BME280;48842;51.046;13.796;2023-11-19T01:41:06;100218.91;;;8.51;nan
62800;BME280;48842;51.046;13.796;2023-11-19T01:43:35;100205.84;;;8.51;nan
62800;BME280;48842;51.046;13.796;2023-11-19T01:46:02;100190.19;;;8.53;nan
62800;BME280;48842;51.046;13.796;2023-11-19T01:48:29;100191.94;;;8.54;nan
62800;BME280;48842;51.046;13.796;2023-11-19T01:50:55;100188.47;;;8.56;nan
62800;BME280;48842;51.046;13.796;2023-11-19T01:53:21;100183.25;;;8.58;nan
62800;BME280;48842;51.046;13.796;2023-11-19T01:55:47;100181.56;;;8.60;nan
62800;BME280;48842;51.046;13.796;2023-11-19T01:58:12;100172.00;;;8.64;nan
62800;BME280;48842;51.046;13.796;2023-11-19T02:00:38;100165.94;;;8.66;nan
62800;BME280;48842;51.046;13.796;2023-11-19T02:03:05;100159.88;;;8.69;nan
62800;BME280;48842;51.046;13.796;2023-11-19T02:05:32;100141.63;;;8.70;nan
62800;BME280;48842;51.046;13.796;2023-11-19T02:07:58;100136.41;;;8.70;nan
62800;BME280;48842;51.046;13.796;2023-11-19T02:10:23;100132.91;;;8.71;nan
62800;BME280;48842;51.046;13.796;2023-11-19T02:12:50;100120.75;;;8.72;nan
62800;BME280;48842;51.046;13.796;2023-11-19T02:15:16;100118.13;;;8.72;nan
62800;BME280;48842;51.046;13.796;2023-11-19T02:17:44;100127.69;;;8.71;nan
62800;BME280;48842;51.046;13.796;2023-11-19T02:20:09;100129.44;;;8.72;nan
62800;BME280;48842;51.046;13.796;2023-11-19T02:22:37;100118.13;;;8.72;nan
62800;BME280;48842;51.046;13.796;2023-11-19T02:25:07;100103.31;;;8.72;nan
62800;BME280;48842;51.046;13.796;2023-11-19T02:27:52;100091.16;;;8.74;nan
62800;BME280;48842;51.046;13.796;2023-11-19T02:30:20;100067.63;;;8.74;nan
62800;BME280;48842;51.046;13.796;2023-11-19T02:32:46;100068.53;;;8.75;nan
62800;BME280;48842;51.046;13.796;2023-11-19T02:35:11;100066.78;;;8.77;nan
62800;BME280;48842;51.046;13.796;2023-11-19T02:37:38;100069.41;;;8.77;nan
62800;BME280;48842;51.046;13.796;2023-11-19T02:40:04;100058.97;;;8.79;nan
62800;BME280;48842;51.046;13.796;2023-11-19T02:42:30;100046.81;;;8.79;nan
62800;BME280;48842;51.046;13.796;2023-11-19T02:44:56;100052.03;;;8.79;nan
62800;BME280;48842;51.046;13.796;2023-11-19T02:47:21;100046.81;;;8.79;nan
62800;BME280;48842;51.046;13.796;2023-11-19T02:49:49;100045.94;;;8.82;nan
62800;BME280;48842;51.046;13.796;2023-11-19T02:52:14;100032.88;;;8.83;nan
62800;BME280;48842;51.046;13.796;2023-11-19T02:54:40;100025.94;;;8.85;nan
62800;BME280;48842;51.046;13.796;2023-11-19T02:57:06;100039.88;;;8.87;nan
62800;BME280;48842;51.046;13.796;2023-11-19T02:59:33;100031.19;;;8.88;nan
62800;BME280;48842;51.046;13.796;2023-11-19T03:02:05;100005.06;;;8.90;nan
62800;BME280;48842;51.046;13.796;2023-11-19T03:04:32;99995.50;;;8.92;nan
62800;BME280;48842;51.046;13.796;2023-11-19T03:06:57;99999.00;;;8.93;nan
62800;BME280;48842;51.046;13.796;2023-11-19T03:09:23;99993.78;;;8.93;nan
62800;BME280;48842;51.046;13.796;2023-11-19T03:11:49;99982.47;;;8.94;nan
62800;BME280;48842;51.046;13.796;2023-11-19T03:14:14;99972.03;;;8.94;nan
62800;BME280;48842;51.046;13.796;2023-11-19T03:16:40;99970.25;;;8.93;nan
62800;BME280;48842;51.046;13.796;2023-11-19T03:19:05;99976.34;;;8.93;nan
62800;BME280;48842;51.046;13.796;2023-11-19T03:21:31;99965.91;;;8.91;nan
62800;BME280;48842;51.046;13.796;2023-11-19T03:23:57;99972.03;;;8.94;nan
62800;BME280;48842;51.046;13.796;2023-11-19T03:26:25;99972.03;;;8.97;nan
62800;BME280;48842;51.046;13.796;2023-11-19T03:28:50;99955.47;;;8.98;nan
62800;BME280;48842;51.046;13.796;2023-11-19T03:31:15;99946.78;;;8.99;nan
62800;BME280;48842;51.046;13.796;2023-11-19T03:33:41;99948.53;;;8.98;nan
62800;BME280;48842;51.046;13.796;2023-11-19T03:36:06;99948.53;;;8.98;nan
62800;BME280;48842;51.046;13.796;2023-11-19T03:38:32;99949.41;;;9.00;nan
62800;BME280;48842;51.046;13.796;2023-11-19T03:40:57;99941.56;;;9.02;nan
62800;BME280;48842;51.046;13.796;2023-11-19T03:43:23;99935.47;;;9.03;nan
62800;BME280;48842;51.046;13.796;2023-11-19T03:45:48;99927.63;;;9.03;nan
62800;BME280;48842;51.046;13.796;2023-11-19T03:48:14;99921.56;;;9.05;nan
62800;BME280;48842;51.046;13.796;2023-11-19T03:50:41;99920.66;;;9.06;nan
62800;BME280;48842;51.046;13.796;2023-11-19T03:53:06;99914.59;;;9.06;nan
62800;BME280;48842;51.046;13.796;2023-11-19T03:55:31;99898.06;;;9.05;nan
62800;BME280;48842;51.046;13.796;2023-11-19T03:57:57;99895.44;;;9.07;nan
62800;BME280;48842;51.046;13.796;2023-11-19T04:00:23;99887.59;;;9.07;nan
62800;BME280;48842;51.046;13.796;2023-11-19T04:02:48;99882.38;;;9.05;nan
62800;BME280;48842;51.046;13.796;2023-11-19T04:05:13;99888.47;;;9.04;nan
62800;BME280;48842;51.046;13.796;2023-11-19T04:07:38;99878.00;;;9.04;nan
62800;BME280;48842;51.046;13.796;2023-11-19T04:10:04;99872.78;;;9.03;nan
62800;BME280;48842;51.046;13.796;2023-11-19T04:12:30;99878.88;;;9.02;nan
62800;BME280;48842;51.046;13.796;2023-11-19T04:14:55;99866.66;;;9.01;nan
62800;BME280;48842;51.046;13.796;2023-11-19T04:17:21;99868.41;;;9.02;nan
62800;BME280;48842;51.046;13.796;2023-11-19T04:19:48;99851.88;;;9.03;nan
62800;BME280;48842;51.046;13.796;2023-11-19T04:22:13;99853.63;;;9.04;nan
62800;BME280;48842;51.046;13.796;2023-11-19T04:24:38;99856.25;;;9.04;nan
62800;BME280;48842;51.046;13.796;2023-11-19T04:27:04;99858.88;;;9.04;nan
62800;BME280;48842;51.046;13.796;2023-11-19T04:29:31;99856.25;;;9.05;nan
62800;BME280;48842;51.046;13.796;2023-11-19T04:31:56;99854.50;;;9.06;nan
62800;BME280;48842;51.046;13.796;2023-11-19T04:34:22;99842.28;;;9.03;nan
62800;BME280;48842;51.046;13.796;2023-11-19T04:36:47;99844.91;;;9.02;nan
62800;BME280;48842;51.046;13.796;2023-11-19T04:39:12;99850.13;;;9.02;nan
62800;BME280;48842;51.046;13.796;2023-11-19T04:41:46;99832.69;;;9.01;nan
62800;BME280;48842;51.046;13.796;2023-11-19T04:44:13;99837.06;;;9.02;nan
62800;BME280;48842;51.046;13.796;2023-11-19T04:46:38;99830.97;;;9.00;nan
62800;BME280;48842;51.046;13.796;2023-11-19T04:49:03;99829.22;;;8.99;nan
62800;BME280;48842;51.046;13.796;2023-11-19T04:51:29;99824.88;;;8.95;nan
62800;BME280;48842;51.046;13.796;2023-11-19T04:53:55;99823.09;;;8.92;nan
62800;BME280;48842;51.046;13.796;2023-11-19T04:56:20;99813.56;;;8.89;nan
62800;BME280;48842;51.046;13.796;2023-11-19T04:58:48;99803.97;;;8.88;nan
62800;BME280;48842;51.046;13.796;2023-11-19T05:01:14;99800.50;;;8.86;nan
62800;BME280;48842;51.046;13.796;2023-11-19T05:03:42;99797.84;;;8.83;nan
62800;BME280;48842;51.046;13.796;2023-11-19T05:06:07;99796.13;;;8.79;nan
62800;BME280;48842;51.046;13.796;2023-11-19T05:08:33;99803.06;;;8.77;nan
62800;BME280;48842;51.046;13.796;2023-11-19T05:10:58;99790.91;;;8.76;nan
62800;BME280;48842;51.046;13.796;2023-11-19T05:13:24;99792.63;;;8.76;nan
62800;BME280;48842;51.046;13.796;2023-11-19T05:15:49;99795.22;;;8.76;nan
62800;BME280;48842;51.046;13.796;2023-11-19T05:18:15;99793.47;;;8.74;nan
62800;BME280;48842;51.046;13.796;2023-11-19T05:20:41;99785.63;;;8.71;nan
62800;BME280;48842;51.046;13.796;2023-11-19T05:23:07;99791.75;;;8.69;nan
62800;BME280;48842;51.046;13.796;2023-11-19T05:25:32;99783.91;;;8.67;nan
62800;BME280;48842;51.046;13.796;2023-11-19T05:27:57;99776.94;;;8.68;nan
62800;BME280;48842;51.046;13.796;2023-11-19T05:30:22;99769.97;;;8.67;nan
62800;BME280;48842;51.046;13.796;2023-11-19T05:32:48;99759.53;;;8.67;nan
62800;BME280;48842;51.046;13.796;2023-11-19T05:35:13;99763.88;;;8.66;nan
62800;BME280;48842;51.046;13.796;2023-11-19T05:37:38;99754.31;;;8.64;nan
62800;BME280;48842;51.046;13.796;2023-11-19T05:40:05;99749.94;;;8.63;nan
62800;BME280;48842;51.046;13.796;2023-11-19T05:42:39;99768.22;;;8.63;nan
62800;BME280;48842;51.046;13.796;2023-11-19T05:45:05;99755.16;;;8.61;nan
62800;BME280;48842;51.046;13.796;2023-11-19T05:47:30;99746.47;;;8.61;nan
62800;BME280;48842;51.046;13.796;2023-11-19T05:49:56;99743.00;;;8.59;nan
62800;BME280;48842;51.046;13.796;2023-11-19T05:52:21;99743.84;;;8.61;nan
62800;BME280;48842;51.046;13.796;2023-11-19T05:54:47;99735.16;;;8.59;nan
62800;BME280;48842;51.046;13.796;2023-11-19T05:57:16;99735.13;;;8.55;nan
62800;BME280;48842;51.046;13.796;2023-11-19T05:59:47;99749.06;;;8.54;nan
62800;BME280;48842;51.046;13.796;2023-11-19T06:02:13;99733.41;;;8.53;nan
62800;BME280;48842;51.046;13.796;2023-11-19T06:04:38;99737.72;;;8.52;nan
62800;BME280;48842;51.046;13.796;2023-11-19T06:07:03;99736.00;;;8.53;nan
62800;BME280;48842;51.046;13.796;2023-11-19T06:09:30;99726.44;;;8.53;nan
62800;BME280;48842;51.046;13.796;2023-11-19T06:11:55;99720.34;;;8.56;nan
62800;BME280;48842;51.046;13.796;2023-11-19T06:14:22;99709.06;;;8.59;nan
62800;BME280;48842;51.046;13.796;2023-11-19T06:16:49;99699.47;;;8.59;nan
62800;BME280;48842;51.046;13.796;2023-11-19T06:19:16;99692.50;;;8.60;nan
62800;BME280;48842;51.046;13.796;2023-11-19T06:21:42;99687.28;;;8.60;nan
62800;BME280;48842;51.046;13.796;2023-11-19T06:24:07;99682.06;;;8.60;nan
62800;BME280;48842;51.046;13.796;2023-11-19T06:26:33;99670.75;;;8.58;nan
62800;BME280;48842;51.046;13.796;2023-11-19T06:28:59;99675.97;;;8.58;nan
62800;BME280;48842;51.046;13.796;2023-11-19T06:31:24;99654.22;;;8.57;nan
62800;BME280;48842;51.046;13.796;2023-11-19T06:33:50;99666.41;;;8.58;nan
62800;BME280;48842;51.046;13.796;2023-11-19T06:36:15;99653.34;;;8.60;nan
62800;BME280;48842;51.046;13.796;2023-11-19T06:38:43;99662.94;;;8.64;nan
62800;BME280;48842;51.046;13.796;2023-11-19T06:41:08;99665.53;;;8.67;nan
62800;BME280;48842;51.046;13.796;2023-11-19T06:43:34;99674.25;;;8.72;nan
62800;BME280;48842;51.046;13.796;2023-11-19T06:46:00;99678.59;;;8.74;nan
62800;BME280;48842;51.046;13.796;2023-11-19T06:48:25;99673.41;;;8.78;nan
62800;BME280;48842;51.046;13.796;2023-11-19T06:50:51;99669.03;;;8.81;nan
62800;BME280;48842;51.046;13.796;2023-11-19T06:53:16;99664.69;;;8.85;nan
62800;BME280;48842;51.046;13.796;2023-11-19T06:55:41;99662.94;;;8.87;nan
62800;BME280;48842;51.046;13.796;2023-11-19T06:58:06;99662.94;;;8.90;nan
62800;BME280;48842;51.046;13.796;2023-11-19T07:00:32;99670.75;;;8.93;nan
62800;BME280;48842;51.046;13.796;2023-11-19T07:02:58;99650.75;;;8.95;nan
62800;BME280;48842;51.046;13.796;2023-11-19T07:05:23;99665.53;;;8.98;nan
62800;BME280;48842;51.046;13.796;2023-11-19T07:07:49;99643.78;;;9.00;nan
62800;BME280;48842;51.046;13.796;2023-11-19T07:10:14;99662.03;;;9.05;nan
62800;BME280;48842;51.046;13.796;2023-11-19T07:12:40;99651.59;;;9.08;nan
62800;BME280;48842;51.046;13.796;2023-11-19T07:15:07;99668.16;;;9.12;nan
62800;BME280;48842;51.046;13.796;2023-11-19T07:17:34;99670.75;;;9.15;nan
62800;BME280;48842;51.046;13.796;2023-11-19T07:20:00;99684.66;;;9.17;nan
62800;BME280;48842;51.046;13.796;2023-11-19T07:22:26;99691.66;;;9.19;nan
62800;BME280;48842;51.046;13.796;2023-11-19T07:24:51;99690.78;;;9.20;nan
62800;BME280;48842;51.046;13.796;2023-11-19T07:27:18;99680.34;;;9.22;nan
62800;BME280;48842;51.046;13.796;2023-11-19T07:29:44;99697.75;;;9.24;nan
62800;BME280;48842;51.046;13.796;2023-11-19T07:32:10;99674.22;;;9.29;nan
62800;BME280;48842;51.046;13.796;2023-11-19T07:34:35;99686.41;;;9.32;nan
62800;BME280;48842;51.046;13.796;2023-11-19T07:37:00;99678.56;;;9.35;nan
62800;BME280;48842;51.046;13.796;2023-11-19T07:39:28;99689.88;;;9.38;nan
62800;BME280;48842;51.046;13.796;2023-11-19T07:41:53;99679.41;;;9.40;nan
62800;BME280;48842;51.046;13.796;2023-11-19T07:44:19;99673.31;;;9.41;nan
62800;BME280;48842;51.046;13.796;2023-11-19T07:46:45;99682.91;;;9.45;nan
62800;BME280;48842;51.046;13.796;2023-11-19T07:49:10;99689.88;;;9.49;nan
62800;BME280;48842;51.046;13.796;2023-11-19T07:51:35;99669.81;;;9.53;nan
62800;BME280;48842;51.046;13.796;2023-11-19T07:54:01;99679.38;;;9.58;nan
62800;BME280;48842;51.046;13.796;2023-11-19T07:56:26;99675.91;;;9.61;nan
62800;BME280;48842;51.046;13.796;2023-11-19T07:58:52;99675.00;;;9.67;nan
62800;BME280;48842;51.046;13.796;2023-11-19T08:01:18;99671.47;;;9.72;nan
62800;BME280;48842;51.046;13.796;2023-11-19T08:03:43;99667.97;;;9.76;nan
62800;BME280;48842;51.046;13.796;2023-11-19T08:06:08;99689.78;;;9.77;nan
62800;BME280;48842;51.046;13.796;2023-11-19T08:08:33;99688.03;;;9.79;nan
62800;BME280;48842;51.046;13.796;2023-11-19T08:11:00;99678.41;;;9.83;nan
62800;BME280;48842;51.046;13.796;2023-11-19T08:13:26;99685.38;;;9.87;nan
62800;BME280;48842;51.046;13.796;2023-11-19T08:15:51;99681.03;;;9.89;nan
62800;BME280;48842;51.046;13.796;2023-11-19T08:18:17;99672.28;;;9.91;nan
62800;BME280;48842;51.046;13.796;2023-11-19T08:20:43;99663.53;;;9.99;nan
62800;BME280;48842;51.046;13.796;2023-11-19T08:23:10;99664.38;;;10.04;nan
62800;BME280;48842;51.046;13.796;2023-11-19T08:25:35;99676.59;;;10.08;nan
62800;BME280;48842;51.046;13.796;2023-11-19T08:28:00;99673.06;;;10.12;nan
62800;BME280;48842;51.046;13.796;2023-11-19T08:30:26;99658.22;;;10.12;nan
62800;BME280;48842;51.046;13.796;2023-11-19T08:32:52;99660.84;;;10.14;nan
62800;BME280;48842;51.046;13.796;2023-11-19T08:35:17;99641.66;;;10.13;nan
62800;BME280;48842;51.046;13.796;2023-11-19T08:37:42;99639.91;;;10.14;nan
62800;BME280;48842;51.046;13.796;2023-11-19T08:40:08;99655.56;;;10.19;nan
62800;BME280;48842;51.046;13.796;2023-11-19T08:42:34;99649.44;;;10.24;nan
62800;BME280;48842;51.046;13.796;2023-11-19T08:45:00;99658.16;;;10.34;nan
62800;BME280;48842;51.046;13.796;2023-11-19T08:47:25;99658.97;;;10.45;nan
62800;BME280;48842;51.046;13.796;2023-11-19T08:49:53;99658.03;;;10.54;nan
62800;BME280;48842;51.046;13.796;2023-11-19T08:52:19;99658.78;;;10.65;nan
62800;BME280;48842;51.046;13.796;2023-11-19T08:54:44;99664.84;;;10.74;nan
62800;BME280;48842;51.046;13.796;2023-11-19T08:57:09;99667.41;;;10.81;nan
62800;BME280;48842;51.046;13.796;2023-11-19T08:59:35;99685.66;;;10.89;nan
62800;BME280;48842;51.046;13.796;2023-11-19T09:02:00;99676.88;;;10.96;nan
62800;BME280;48842;51.046;13.796;2023-11-19T09:04:25;99691.72;;;10.99;nan
62800;BME280;48842;51.046;13.796;2023-11-19T09:06:50;99689.06;;;11.00;nan
62800;BME280;48842;51.046;13.796;2023-11-19T09:09:16;99682.97;;;11.00;nan
62800;BME280;48842;51.046;13.796;2023-11-19T09:11:41;99683.84;;;11.00;nan
62800;BME280;48842;51.046;13.796;2023-11-19T09:14:07;99682.13;;;10.99;nan
62800;BME280;48842;51.046;13.796;2023-11-19T09:16:33;99675.13;;;10.98;nan
62800;BME280;48842;51.046;13.796;2023-11-19T09:18:58;99665.50;;;10.99;nan
62800;BME280;48842;51.046;13.796;2023-11-19T09:21:27;99656.78;;;11.00;nan
62800;BME280;48842;51.046;13.796;2023-11-19T09:23:54;99673.34;;;11.00;nan
62800;BME280;48842;51.046;13.796;2023-11-19T09:26:20;99675.09;;;11.02;nan
62800;BME280;48842;51.046;13.796;2023-11-19T09:28:45;99675.94;;;11.04;nan
62800;BME280;48842;51.046;13.796;2023-11-19T09:31:16;99671.59;;;11.04;nan
62800;BME280;48842;51.046;13.796;2023-11-19T09:33:42;99684.66;;;11.07;nan
62800;BME280;48842;51.046;13.796;2023-11-19T09:36:08;99682.88;;;11.11;nan
62800;BME280;48842;51.046;13.796;2023-11-19T09:38:35;99688.97;;;11.16;nan
62800;BME280;48842;51.046;13.796;2023-11-19T09:41:04;99673.16;;;11.22;nan
62800;BME280;48842;51.046;13.796;2023-11-19T09:43:33;99672.22;;;11.29;nan
62800;BME280;48842;51.046;13.796;2023-11-19T09:46:01;99670.41;;;11.38;nan
62800;BME280;48842;51.046;13.796;2023-11-19T09:48:32;99670.34;;;11.44;nan
62800;BME280;48842;51.046;13.796;2023-11-19T09:50:58;99675.53;;;11.48;nan
62800;BME280;48842;51.046;13.796;2023-11-19T09:53:24;99669.38;;;11.52;nan
62800;BME280;48842;51.046;13.796;2023-11-19T09:55:50;99676.31;;;11.58;nan
62800;BME280;48842;51.046;13.796;2023-11-19T09:58:16;99656.94;;;11.68;nan
62800;BME280;48842;51.046;13.796;2023-11-19T10:00:43;99656.81;;;11.78;nan
62800;BME280;48842;51.046;13.796;2023-11-19T10:03:10;99659.38;;;11.84;nan
62800;BME280;48842;51.046;13.796;2023-11-19T10:05:37;99651.44;;;11.87;nan
62800;BME280;48842;51.046;13.796;2023-11-19T10:08:04;99657.56;;;11.89;nan
62800;BME280;48842;51.046;13.796;2023-11-19T10:10:30;99651.38;;;11.96;nan
62800;BME280;48842;51.046;13.796;2023-11-19T10:12:55;99651.25;;;12.05;nan
62800;BME280;48842;51.046;13.796;2023-11-19T10:15:22;99649.50;;;12.08;nan
62800;BME280;48842;51.046;13.796;2023-11-19T10:17:49;99651.22;;;12.07;nan
62800;BME280;48842;51.046;13.796;2023-11-19T10:20:14;99647.66;;;12.13;nan
62800;BME280;48842;51.046;13.796;2023-11-19T10:22:39;99639.56;;;12.30;nan
62800;BME280;48842;51.046;13.796;2023-11-19T10:25:21;99641.09;;;12.45;nan
62800;BME280;48842;51.046;13.796;2023-11-19T10:27:47;99644.22;;;12.68;nan
62800;BME280;48842;51.046;13.796;2023-11-19T10:30:12;99635.16;;;12.85;nan
62800;BME280;48842;51.046;13.796;2023-11-19T10:32:37;99637.56;;;13.00;nan
62800;BME280;48842;51.046;13.796;2023-11-19T10:35:06;99628.53;;;13.14;nan
62800;BME280;48842;51.046;13.796;2023-11-19T10:37:32;99635.31;;;13.27;nan
62800;BME280;48842;51.046;13.796;2023-11-19T10:39:57;99642.13;;;13.39;nan
62800;BME280;48842;51.046;13.796;2023-11-19T10:42:23;99629.66;;;13.50;nan
62800;BME280;48842;51.046;13.796;2023-11-19T10:44:48;99624.25;;;13.56;nan
62800;BME280;48842;51.046;13.796;2023-11-19T10:47:14;99618.84;;;13.64;nan
62800;BME280;48842;51.046;13.796;2023-11-19T10:49:43;99615.19;;;13.71;nan
62800;BME280;48842;51.046;13.796;2023-11-19T10:52:09;99609.78;;;13.79;nan
62800;BME280;48842;51.046;13.796;2023-11-19T10:54:34;99602.50;;;13.90;nan
62800;BME280;48842;51.046;13.796;2023-11-19T10:57:02;99612.09;;;13.94;nan
62800;BME280;48842;51.046;13.796;2023-11-19T10:59:31;99628.63;;;14.00;nan
62800;BME280;48842;51.046;13.796;2023-11-19T11:01:57;99628.53;;;14.04;nan
62800;BME280;48842;51.046;13.796;2023-11-19T11:04:25;99632.78;;;14.10;nan
62800;BME280;48842;51.046;13.796;2023-11-19T11:06:54;99633.66;;;14.10;nan
62800;BME280;48842;51.046;13.796;2023-11-19T11:09:19;99618.75;;;14.11;nan
62800;BME280;48842;51.046;13.796;2023-11-19T11:11:47;99617.75;;;14.17;nan
62800;BME280;48842;51.046;13.796;2023-11-19T11:14:13;99615.00;;;14.21;nan
62800;BME280;48842;51.046;13.796;2023-11-19T11:16:46;99621.03;;;14.25;nan
62800;BME280;48842;51.046;13.796;2023-11-19T11:19:11;99616.63;;;14.27;nan
62800;BME280;48842;51.046;13.796;2023-11-19T11:21:39;99608.66;;;14.30;nan
62800;BME280;48842;51.046;13.796;2023-11-19T11:24:19;99617.34;;;14.34;nan
62800;BME280;48842;51.046;13.796;2023-11-19T11:30:11;99628.53;;;14.43;nan
62800;BME280;48842;51.046;13.796;2023-11-19T11:32:58;99629.34;;;14.45;nan
62800;BME280;48842;51.046;13.796;2023-11-19T11:38:47;99632.22;;;14.36;nan
62800;BME280;48842;51.046;13.796;2023-11-19T11:41:25;99620.78;;;14.37;nan
62800;BME280;48842;51.046;13.796;2023-11-19T11:43:52;99637.31;;;14.42;nan
62800;BME280;48842;51.046;13.796;2023-11-19T11:49:05;99633.06;;;14.37;nan
62800;BME280;48842;51.046;13.796;2023-11-19T11:57:10;99620.94;;;14.31;nan
62800;BME280;48842;51.046;13.796;2023-11-19T12:02:08;99620.84;;;14.34;nan
62800;BME280;48842;51.046;13.796;2023-11-19T12:04:38;99613.66;;;14.41;nan
62800;BME280;48842;51.046;13.796;2023-11-19T12:07:06;99616.06;;;14.52;nan
62800;BME280;48842;51.046;13.796;2023-11-19T12:09:32;99619.06;;;14.74;nan
62800;BME280;48842;51.046;13.796;2023-11-19T12:12:11;99617.63;;;14.95;nan
62800;BME280;48842;51.046;13.796;2023-11-19T12:20:03;99593.81;;;15.31;nan
62800;BME280;48842;51.046;13.796;2023-11-19T12:22:30;99583.25;;;15.31;nan
62800;BME280;48842;51.046;13.796;2023-11-19T12:24:56;99587.78;;;15.26;nan
62800;BME280;48842;51.046;13.796;2023-11-19T12:27:21;99571.16;;;15.24;nan
62800;BME280;48842;51.046;13.796;2023-11-19T12:29:50;99576.34;;;15.27;nan
62800;BME280;48842;51.046;13.796;2023-11-19T12:32:15;99570.63;;;15.42;nan
62800;BME280;48842;51.046;13.796;2023-11-19T12:34:41;99573.56;;;15.63;nan
62800;BME280;48842;51.046;13.796;2023-11-19T12:37:07;99576.59;;;15.80;nan
62800;BME280;48842;51.046;13.796;2023-11-19T12:39:33;99572.78;;;15.91;nan
62800;BME280;48842;51.046;13.796;2023-11-19T12:41:59;99574.06;;;16.05;nan
62800;BME280;48842;51.046;13.796;2023-11-19T12:44:25;99564.28;;;16.09;nan
62800;BME280;48842;51.046;13.796;2023-11-19T12:47:05;99559.81;;;16.11;nan
62800;BME280;48842;51.046;13.796;2023-11-19T12:49:32;99567.84;;;16.08;nan
62800;BME280;48842;51.046;13.796;2023-11-19T12:51:57;99560.81;;;16.07;nan
62800;BME280;48842;51.046;13.796;2023-11-19T12:54:33;99559.97;;;16.07;nan
62800;BME280;48842;51.046;13.796;2023-11-19T12:56:58;99558.16;;;16.07;nan
62800;BME280;48842;51.046;13.796;2023-11-19T12:59:24;99559.00;;;16.09;nan
62800;BME280;48842;51.046;13.796;2023-11-19T13:01:59;99552.56;;;16.16;nan
62800;BME280;48842;51.046;13.796;2023-11-19T13:04:31;99551.56;;;16.20;nan
62800;BME280;48842;51.046;13.796;2023-11-19T13:07:00;99548.03;;;16.21;nan
62800;BME280;48842;51.046;13.796;2023-11-19T13:09:26;99548.22;;;16.15;nan
62800;BME280;48842;51.046;13.796;2023-11-19T13:11:53;99541.31;;;16.11;nan
62800;BME280;48842;51.046;13.796;2023-11-19T13:14:19;99537.13;;;16.04;nan
62800;BME280;48842;51.046;13.796;2023-11-19T13:16:44;99540.03;;;15.96;nan
62800;BME280;48842;51.046;13.796;2023-11-19T13:19:13;99543.88;;;15.86;nan
62800;BME280;48842;51.046;13.796;2023-11-19T13:21:39;99559.63;;;15.89;nan
62800;BME280;48842;51.046;13.796;2023-11-19T13:24:06;99551.75;;;15.87;nan
62800;BME280;48842;51.046;13.796;2023-11-19T13:26:31;99541.16;;;15.87;nan
62800;BME280;48842;51.046;13.796;2023-11-19T13:28:56;99545.53;;;15.88;nan
62800;BME280;48842;51.046;13.796;2023-11-19T13:31:22;99547.34;;;15.86;nan
62800;BME280;48842;51.046;13.796;2023-11-19T13:33:47;99548.47;;;15.79;nan